Tampico, Washington
Current Conditions -  °F | °C
As of 12:53 AM on Sunday 26 Oct 2014 (Local Time) from KYKM Reporting Station
Clear Clear  
Wind Chill: 51°   Ceiling: Unl
Heat Index: 51°   Visibility: 10mi
Dew Point: 37°   Wind: 8mph
Humidity: 59%   Direction: 240°WSW
Pressure: 29.75"   Gusts: NA
Location:  46.5979°N, 120.534°W
Report Text: KYKM 260753Z AUTO 24007KT 10SM CLR 11/03 A2975 RMK AO2 SLP076 T01060028 401560094
Loading
Personal Weather Stations






























Interactive Weather Map
Tropical Storm Tracking
New forecast layout! Learn more

10-Day Weather Forecast

Advertisements
Track Severe Weather on mobile